Time;durP1;ratioP1;P1;durP2;ratioP2;P2;SDS_P1;SDS_P2;PMS_P1;PMS_P2;Temp;Humidity;BMP_temperature;BMP_pressure;BME280_temperature;BME280_humidity;BME280_pressure;Samples;Min_cycle;Max_cycle;Signal;HPM_P1;HPM_P2
2022/08/07 00:00:35;;;;;;;3.05;2.78;;;13.00;99.90;;;;;;5035442;28;20045;-81
2022/08/07 00:03:00;;;;;;;4.15;2.65;;;13.00;99.90;;;;;;5033638;28;20064;-81
2022/08/07 00:05:27;;;;;;;4.47;3.05;;;12.90;99.90;;;;;;5017074;28;20449;-81
2022/08/07 00:07:53;;;;;;;6.30;3.72;;;12.90;99.90;;;;;;5033945;28;20046;-81
2022/08/07 00:10:21;;;;;;;5.32;2.97;;;12.80;99.90;;;;;;5034749;28;20108;-80
2022/08/07 00:12:48;;;;;;;6.97;2.97;;;12.80;99.90;;;;;;5034263;28;20049;-81
2022/08/07 00:15:13;;;;;;;3.85;3.45;;;12.80;99.90;;;;;;5033523;28;20045;-81
2022/08/07 00:17:39;;;;;;;5.68;3.30;;;12.80;99.90;;;;;;5034258;28;20547;-81
2022/08/07 00:20:05;;;;;;;4.70;3.40;;;12.80;99.90;;;;;;5034138;28;20041;-81
2022/08/07 00:22:31;;;;;;;3.47;2.90;;;12.70;99.90;;;;;;5033171;28;20049;-81
2022/08/07 00:24:57;;;;;;;3.45;3.15;;;12.60;99.90;;;;;;5034153;28;20048;-81
2022/08/07 00:27:23;;;;;;;3.22;2.67;;;12.50;99.90;;;;;;5033961;28;20033;-80
2022/08/07 00:29:49;;;;;;;3.40;3.00;;;12.50;99.90;;;;;;5034025;28;20041;-81
2022/08/07 00:32:15;;;;;;;4.40;3.15;;;12.60;99.90;;;;;;5034278;28;20072;-81
2022/08/07 00:34:41;;;;;;;4.05;3.33;;;12.60;99.90;;;;;;5033764;28;20382;-81
2022/08/07 00:37:07;;;;;;;7.97;3.40;;;12.60;99.90;;;;;;5032825;28;20049;-81
2022/08/07 00:39:34;;;;;;;4.05;2.90;;;12.60;99.90;;;;;;5033776;28;20077;-81
2022/08/07 00:42:00;;;;;;;4.40;3.03;;;12.50;99.90;;;;;;5033493;28;20362;-81
2022/08/07 00:44:26;;;;;;;4.22;3.60;;;12.60;99.90;;;;;;5033990;28;20136;-81
2022/08/07 00:46:52;;;;;;;3.92;2.65;;;12.50;99.90;;;;;;5034402;28;20102;-81
2022/08/07 00:49:18;;;;;;;4.07;3.38;;;12.50;99.90;;;;;;5033840;28;20454;-81
2022/08/07 00:51:44;;;;;;;5.35;3.70;;;12.40;99.90;;;;;;5034149;28;20136;-81
2022/08/07 00:54:13;;;;;;;6.20;4.00;;;12.40;99.90;;;;;;5033790;28;20077;-81
2022/08/07 00:56:40;;;;;;;5.25;3.33;;;12.40;99.90;;;;;;5034223;28;20049;-81
2022/08/07 00:59:06;;;;;;;6.90;3.45;;;12.40;99.90;;;;;;5033344;28;20049;-81
2022/08/07 01:01:33;;;;;;;4.70;3.20;;;12.30;99.90;;;;;;5033492;28;20071;-81
2022/08/07 01:03:59;;;;;;;4.75;3.60;;;12.40;99.90;;;;;;5032344;28;20107;-81
2022/08/07 01:06:26;;;;;;;4.63;3.45;;;12.40;99.90;;;;;;5033492;28;20049;-81
2022/08/07 01:08:51;;;;;;;5.35;3.38;;;12.40;99.90;;;;;;5033798;28;20044;-81
2022/08/07 01:11:17;;;;;;;5.15;3.67;;;12.30;99.90;;;;;;5033437;28;20436;-81
2022/08/07 01:13:44;;;;;;;4.13;2.92;;;12.30;99.90;;;;;;5033395;28;20053;-81
2022/08/07 01:16:10;;;;;;;5.20;3.80;;;12.30;99.90;;;;;;5033567;28;20442;-81
2022/08/07 01:18:36;;;;;;;4.43;3.75;;;12.30;99.90;;;;;;5033008;28;20041;-81
2022/08/07 01:21:16;;;;;;;4.97;3.72;;;12.30;99.90;;;;;;5033104;28;20049;-81
2022/08/07 01:23:44;;;;;;;5.25;4.30;;;12.20;99.90;;;;;;5033605;28;20056;-81
2022/08/07 01:26:13;;;;;;;4.25;3.20;;;12.20;99.90;;;;;;5033530;28;20083;-81
2022/08/07 01:28:42;;;;;;;4.97;3.28;;;12.10;99.90;;;;;;5033294;28;20046;-81
2022/08/07 01:31:08;;;;;;;6.03;4.07;;;12.10;99.90;;;;;;5032900;28;20450;-81
2022/08/07 01:33:34;;;;;;;6.70;3.83;;;12.10;99.90;;;;;;5032828;28;20120;-81
2022/08/07 01:36:01;;;;;;;4.35;2.78;;;12.10;99.90;;;;;;5032894;28;20054;-81
2022/08/07 01:38:28;;;;;;;4.55;3.58;;;12.10;99.90;;;;;;5032093;28;20048;-81
2022/08/07 01:40:59;;;;;;;4.53;2.95;;;12.10;99.90;;;;;;5033409;28;20135;-81
2022/08/07 01:43:26;;;;;;;5.15;3.38;;;12.10;99.90;;;;;;5032883;28;20465;-81
2022/08/07 01:45:54;;;;;;;4.78;3.20;;;12.10;99.90;;;;;;5032854;28;20095;-81
2022/08/07 01:48:20;;;;;;;3.72;2.80;;;12.10;99.90;;;;;;5032765;28;20125;-81
2022/08/07 01:50:50;;;;;;;4.05;2.83;;;12.00;99.90;;;;;;5032312;28;20111;-81
2022/08/07 01:53:19;;;;;;;4.75;3.95;;;12.00;99.90;;;;;;5032820;28;20120;-81
2022/08/07 01:55:50;;;;;;;4.57;3.42;;;12.00;99.90;;;;;;5032605;28;20549;-81
2022/08/07 01:58:19;;;;;;;3.95;3.00;;;11.90;99.90;;;;;;5032506;28;20049;-81
2022/08/07 02:00:51;;;;;;;5.53;3.38;;;11.70;99.90;;;;;;5033097;28;20050;-81
2022/08/07 02:03:20;;;;;;;4.90;3.17;;;11.80;99.90;;;;;;5032699;28;20093;-80
2022/08/07 02:05:52;;;;;;;5.57;3.15;;;11.80;99.90;;;;;;5032902;28;20124;-81
2022/08/07 02:08:22;;;;;;;4.37;2.77;;;11.80;99.90;;;;;;5032893;28;20041;-81
2022/08/07 02:10:52;;;;;;;5.35;3.03;;;11.70;99.90;;;;;;5032562;28;20456;-80
2022/08/07 02:13:21;;;;;;;2.92;2.58;;;11.70;99.90;;;;;;5032894;28;20385;-81
2022/08/07 02:15:49;;;;;;;4.15;2.60;;;11.80;99.90;;;;;;5032610;28;20049;-81
2022/08/07 02:18:16;;;;;;;4.70;2.55;;;11.80;99.90;;;;;;5032411;28;20041;-80
2022/08/07 02:20:44;;;;;;;3.67;2.85;;;11.80;99.90;;;;;;5031424;28;20046;-82
2022/08/07 02:23:10;;;;;;;3.30;2.75;;;11.80;99.90;;;;;;5032667;28;20120;-80
2022/08/07 02:25:39;;;;;;;4.70;3.80;;;11.80;99.90;;;;;;5031213;28;20081;-81
2022/08/07 02:28:06;;;;;;;5.57;3.00;;;11.80;99.90;;;;;;5032163;28;20180;-81
2022/08/07 02:30:34;;;;;;;3.15;2.60;;;11.80;99.90;;;;;;5031577;28;20471;-80
2022/08/07 02:33:01;;;;;;;4.88;3.08;;;11.70;99.90;;;;;;5032608;28;20050;-81
2022/08/07 02:35:27;;;;;;;3.67;2.58;;;11.70;99.90;;;;;;5032268;28;20124;-81
2022/08/07 02:37:56;;;;;;;4.40;3.30;;;11.70;99.90;;;;;;5032155;28;20072;-81
2022/08/07 02:40:23;;;;;;;4.72;2.90;;;11.70;99.90;;;;;;5032208;28;20191;-81
2022/08/07 02:42:49;;;;;;;5.30;3.47;;;11.70;99.90;;;;;;5032542;28;20370;-81
2022/08/07 02:45:17;;;;;;;3.38;2.75;;;11.60;99.90;;;;;;5014677;28;20394;-81
2022/08/07 02:47:43;;;;;;;6.95;2.90;;;11.60;99.90;;;;;;5031937;28;20092;-81
2022/08/07 02:50:10;;;;;;;7.38;4.07;;;11.50;99.90;;;;;;5032207;28;20121;-81
2022/08/07 02:52:42;;;;;;;3.78;2.75;;;11.50;99.90;;;;;;5032119;28;20054;-81
2022/08/07 02:55:16;;;;;;;3.47;2.53;;;11.50;99.90;;;;;;5031737;28;20057;-80
2022/08/07 02:57:45;;;;;;;3.15;2.60;;;11.50;99.90;;;;;;5032070;28;20045;-81
2022/08/07 03:00:12;;;;;;;5.88;3.50;;;11.50;99.90;;;;;;5032276;28;20057;-81
2022/08/07 03:02:40;;;;;;;6.80;3.85;;;11.50;99.90;;;;;;5035029;28;20559;-80
2022/08/07 03:05:07;;;;;;;3.47;2.78;;;11.50;99.90;;;;;;5035912;28;20128;-81
2022/08/07 03:07:35;;;;;;;4.45;3.10;;;11.40;99.90;;;;;;5034652;28;20041;-81
2022/08/07 03:10:01;;;;;;;4.03;2.97;;;11.40;99.90;;;;;;5036297;28;20046;-81
2022/08/07 03:12:27;;;;;;;4.35;3.00;;;11.40;99.90;;;;;;5035804;28;20497;-81
2022/08/07 03:14:55;;;;;;;5.03;3.15;;;11.40;99.90;;;;;;5035654;28;20045;-81
2022/08/07 03:17:21;;;;;;;5.53;3.53;;;11.40;99.90;;;;;;5035812;28;20080;-81
2022/08/07 03:19:48;;;;;;;4.47;3.45;;;11.30;99.90;;;;;;5035732;28;20180;-81
2022/08/07 03:22:16;;;;;;;5.93;3.22;;;11.20;99.90;;;;;;5034688;28;20056;-81
2022/08/07 03:24:42;;;;;;;4.63;3.42;;;11.20;99.90;;;;;;5035619;28;20453;-80
2022/08/07 03:27:08;;;;;;;4.50;3.03;;;11.30;99.90;;;;;;5034340;28;20045;-81
2022/08/07 03:29:41;;;;;;;4.93;3.17;;;11.20;99.90;;;;;;5035730;28;20485;-81
2022/08/07 03:32:10;;;;;;;7.43;3.45;;;11.20;99.90;;;;;;5036751;28;20455;-81
2022/08/07 03:34:37;;;;;;;3.80;3.30;;;11.20;99.90;;;;;;5044004;28;20190;-81
2022/08/07 03:37:06;;;;;;;4.32;3.03;;;11.20;99.90;;;;;;5041776;28;20053;-81
2022/08/07 03:39:34;;;;;;;3.75;3.00;;;11.20;99.90;;;;;;5040557;28;20547;-80
2022/08/07 03:42:02;;;;;;;4.57;3.33;;;11.20;99.90;;;;;;5038885;28;20061;-81
2022/08/07 03:44:28;;;;;;;4.47;3.17;;;11.30;99.90;;;;;;5040106;28;20052;-80
2022/08/07 03:46:55;;;;;;;6.50;3.75;;;11.20;99.90;;;;;;5040338;28;20118;-81
2022/08/07 03:49:21;;;;;;;4.18;3.22;;;11.30;99.90;;;;;;5040294;28;20103;-80
2022/08/07 03:51:49;;;;;;;2.88;2.67;;;11.30;99.90;;;;;;5040657;28;20085;-80
2022/08/07 03:54:15;;;;;;;3.47;2.83;;;11.30;99.90;;;;;;5040020;28;20058;-80
2022/08/07 03:56:41;;;;;;;3.88;3.58;;;11.50;99.90;;;;;;5039378;28;20049;-81
2022/08/07 03:59:10;;;;;;;3.75;3.33;;;11.20;99.90;;;;;;5040284;28;20050;-81
2022/08/07 04:01:40;;;;;;;3.58;2.95;;;11.10;99.90;;;;;;5040609;28;20132;-81
2022/08/07 04:04:06;;;;;;;4.55;3.63;;;11.10;99.90;;;;;;5039562;28;20048;-81
2022/08/07 04:06:33;;;;;;;6.60;4.45;;;11.10;99.90;;;;;;5039935;28;20045;-81
2022/08/07 04:09:00;;;;;;;7.20;4.00;;;11.10;99.90;;;;;;5038160;28;20046;-81
2022/08/07 04:11:26;;;;;;;3.55;2.90;;;11.10;99.90;;;;;;5033217;28;20060;-81
2022/08/07 04:13:52;;;;;;;7.30;3.67;;;11.00;99.90;;;;;;5033604;28;20386;-80
2022/08/07 04:16:19;;;;;;;4.43;3.15;;;11.00;99.90;;;;;;5034441;28;20046;-81
2022/08/07 04:18:45;;;;;;;3.35;2.50;;;11.00;99.90;;;;;;5034565;28;20041;-81
2022/08/07 04:21:11;;;;;;;5.10;3.72;;;11.00;99.90;;;;;;5034477;28;20111;-81
2022/08/07 04:23:38;;;;;;;4.50;3.03;;;11.00;99.90;;;;;;5035059;28;20045;-81
2022/08/07 04:26:06;;;;;;;4.35;2.95;;;11.00;99.90;;;;;;5033813;28;20091;-82
2022/08/07 04:28:32;;;;;;;3.67;3.00;;;11.10;99.90;;;;;;5034128;28;20083;-82
2022/08/07 04:30:58;;;;;;;4.75;3.30;;;11.00;99.90;;;;;;5034147;28;20132;-81
2022/08/07 04:33:26;;;;;;;4.07;3.15;;;11.00;99.90;;;;;;5034081;28;20057;-81
2022/08/07 04:35:53;;;;;;;5.28;3.70;;;11.10;99.90;;;;;;5033994;28;20069;-81
2022/08/07 04:38:19;;;;;;;6.78;3.35;;;11.10;99.90;;;;;;5034125;28;20050;-82
2022/08/07 04:40:46;;;;;;;4.97;3.63;;;11.20;99.90;;;;;;5033921;28;20049;-81
2022/08/07 04:43:15;;;;;;;4.90;3.50;;;11.20;99.90;;;;;;5033660;28;20564;-81
2022/08/07 04:45:54;;;;;;;5.80;3.90;;;11.30;99.90;;;;;;5033938;28;20111;-81
2022/08/07 04:48:37;;;;;;;5.80;4.28;;;11.20;99.90;;;;;;5034127;28;20045;-81
2022/08/07 04:51:03;;;;;;;;;;;11.30;99.90;;;;;;5034737;28;20515;-81
2022/08/07 04:53:38;;;;;;;6.18;3.28;;;11.30;99.90;;;;;;5033700;28;19921;-81
2022/08/07 04:56:16;;;;;;;6.32;3.47;;;11.30;99.90;;;;;;5034386;28;20235;-81
2022/08/07 04:59:13;;;;;;;4.65;3.55;;;11.40;99.90;;;;;;5033448;28;20096;-81
2022/08/07 05:01:59;;;;;;;4.65;3.17;;;11.50;99.90;;;;;;5033126;28;20049;-81
2022/08/07 05:04:37;;;;;;;4.45;3.72;;;11.60;99.90;;;;;;5032890;28;20115;-81
2022/08/07 05:07:36;;;;;;;6.75;4.63;;;11.60;99.90;;;;;;5033148;28;20042;-81
2022/08/07 05:10:19;;;;;;;7.28;3.88;;;11.70;99.90;;;;;;5030017;28;20110;-82
2022/08/07 05:12:54;;;;;;;6.97;4.40;;;11.70;99.90;;;;;;5031907;28;20088;-82
2022/08/07 05:15:25;;;;;;;8.38;5.30;;;11.80;99.90;;;;;;5032667;28;20099;-82
2022/08/07 05:18:00;;;;;;;6.40;4.18;;;11.90;99.90;;;;;;5032852;28;20190;-81
2022/08/07 05:20:38;;;;;;;6.60;4.47;;;12.00;99.90;;;;;;5032168;28;20095;-81
2022/08/07 05:23:40;;;;;;;7.40;4.50;;;12.10;99.90;;;;;;5031947;28;20596;-81
2022/08/07 05:26:15;;;;;;;5.03;3.38;;;12.10;99.90;;;;;;5023180;28;20054;-81
2022/08/07 05:28:41;;;;;;;6.63;3.15;;;12.20;99.90;;;;;;5032410;28;20060;-80
2022/08/07 05:31:10;;;;;;;9.05;5.03;;;12.40;99.90;;;;;;5032131;28;20107;-80
2022/08/07 05:33:37;;;;;;;7.43;4.82;;;12.50;99.90;;;;;;5032013;28;20049;-80
2022/08/07 05:36:05;;;;;;;6.95;5.15;;;12.60;99.90;;;;;;5031785;28;20120;-80
2022/08/07 05:38:32;;;;;;;7.13;4.03;;;12.70;99.90;;;;;;5031880;28;20049;-80
2022/08/07 05:40:58;;;;;;;5.00;3.92;;;12.80;99.90;;;;;;5031009;28;20053;-80
2022/08/07 05:43:24;;;;;;;4.93;3.78;;;12.90;99.90;;;;;;5032504;28;20056;-80
2022/08/07 05:45:51;;;;;;;5.45;4.38;;;12.90;99.90;;;;;;5032149;28;20179;-80
2022/08/07 05:48:18;;;;;;;7.05;4.18;;;13.00;99.90;;;;;;5031939;28;20085;-80
2022/08/07 05:50:44;;;;;;;7.07;4.88;;;13.10;99.90;;;;;;5032140;28;20132;-80
2022/08/07 05:53:10;;;;;;;6.82;4.10;;;13.20;99.90;;;;;;5031845;28;20120;-80
2022/08/07 05:55:36;;;;;;;6.45;4.40;;;13.40;99.90;;;;;;5031205;28;20065;-80
2022/08/07 05:58:04;;;;;;;6.35;4.20;;;13.50;99.90;;;;;;5031956;28;20045;-79
2022/08/07 06:00:32;;;;;;;8.02;5.35;;;13.60;99.90;;;;;;5032076;28;20134;-79
2022/08/07 06:03:00;;;;;;;6.63;5.15;;;13.70;99.90;;;;;;5030924;28;20058;-80
2022/08/07 06:05:27;;;;;;;9.43;5.88;;;13.80;99.90;;;;;;5031743;28;20050;-79
2022/08/07 06:07:55;;;;;;;6.70;4.28;;;13.90;99.90;;;;;;5031673;28;20136;-80
2022/08/07 06:10:21;;;;;;;8.85;4.55;;;14.00;99.90;;;;;;5031908;28;20061;-80
2022/08/07 06:12:48;;;;;;;7.95;5.07;;;14.10;99.90;;;;;;5031141;28;20053;-80
2022/08/07 06:15:15;;;;;;;10.95;5.65;;;14.30;99.90;;;;;;5031380;28;20049;-81
2022/08/07 06:17:45;;;;;;;9.13;5.45;;;14.40;99.90;;;;;;5030360;28;20042;-79
2022/08/07 06:20:10;;;;;;;11.68;5.80;;;14.50;99.90;;;;;;5031667;28;20098;-80
2022/08/07 06:22:41;;;;;;;8.30;5.20;;;14.60;99.90;;;;;;5052046;28;20088;-81
2022/08/07 06:25:08;;;;;;;8.40;5.70;;;14.70;99.90;;;;;;5051278;28;20026;-81
2022/08/07 06:27:34;;;;;;;9.55;5.60;;;14.90;99.90;;;;;;5051741;28;20046;-80
2022/08/07 06:30:00;;;;;;;6.75;4.95;;;15.00;99.90;;;;;;5051107;28;20037;-80
2022/08/07 06:32:26;;;;;;;7.82;5.82;;;15.10;99.90;;;;;;5052040;28;20041;-81
2022/08/07 06:34:51;;;;;;;8.38;5.38;;;15.30;99.90;;;;;;5051292;28;20051;-81
2022/08/07 06:37:17;;;;;;;8.68;5.38;;;15.40;99.90;;;;;;5057416;28;20041;-80
2022/08/07 06:39:43;;;;;;;9.43;5.68;;;15.50;99.90;;;;;;5057472;28;20048;-80
2022/08/07 06:42:20;;;;;;;7.78;5.15;;;15.70;99.90;;;;;;5057713;28;20096;-80
2022/08/07 06:44:49;;;;;;;7.53;5.32;;;15.90;99.90;;;;;;5058202;28;20037;-80
2022/08/07 06:47:15;;;;;;;8.57;5.85;;;16.10;99.90;;;;;;5057797;28;20041;-81
2022/08/07 06:49:43;;;;;;;9.48;5.75;;;16.20;99.90;;;;;;5058162;28;20151;-81
2022/08/07 06:52:11;;;;;;;10.48;5.28;;;16.60;99.90;;;;;;5056430;28;20049;-81
2022/08/07 06:54:40;;;;;;;6.30;5.20;;;17.50;99.90;;;;;;5053188;28;20057;-80
2022/08/07 06:57:08;;;;;;;5.63;5.00;;;19.20;99.90;;;;;;5048803;28;20457;-81
2022/08/07 06:59:42;;;;;;;4.75;3.63;;;20.80;99.90;;;;;;5045666;28;20084;-81
2022/08/07 07:02:16;;;;;;;4.38;3.60;;;22.10;99.90;;;;;;5046700;28;20076;-81
2022/08/07 07:04:44;;;;;;;4.80;4.13;;;22.80;97.00;;;;;;5054935;28;20067;-81
2022/08/07 07:07:10;;;;;;;6.72;4.63;;;23.80;99.00;;;;;;5056329;28;20069;-81
2022/08/07 07:09:37;;;;;;;5.35;4.00;;;24.50;97.00;;;;;;5054705;28;20040;-82
2022/08/07 07:12:05;;;;;;;5.95;3.95;;;25.10;95.30;;;;;;5034293;28;20546;-81
2022/08/07 07:14:36;;;;;;;3.25;2.95;;;25.80;92.30;;;;;;5034775;28;20086;-81
2022/08/07 07:17:09;;;;;;;7.05;3.85;;;26.30;90.90;;;;;;5034546;28;20085;-82
2022/08/07 07:19:43;;;;;;;4.22;3.65;;;26.70;92.10;;;;;;5034756;28;20042;-81
2022/08/07 07:22:10;;;;;;;4.15;3.40;;;27.10;90.00;;;;;;5034350;28;20403;-81
2022/08/07 07:24:37;;;;;;;5.55;3.70;;;27.50;90.50;;;;;;5034632;28;20049;-81
2022/08/07 07:27:04;;;;;;;5.85;3.78;;;27.60;89.00;;;;;;5034802;28;20045;-81
2022/08/07 07:29:36;;;;;;;3.50;2.80;;;27.90;88.00;;;;;;5034589;28;20446;-81
2022/08/07 07:32:06;;;;;;;3.63;3.28;;;28.20;84.40;;;;;;5034428;28;20052;-81
2022/08/07 07:34:35;;;;;;;3.10;2.78;;;28.40;84.30;;;;;;5034277;28;20454;-82
2022/08/07 07:37:03;;;;;;;4.75;3.33;;;28.40;83.90;;;;;;5034495;28;20053;-81
2022/08/07 07:39:31;;;;;;;3.28;2.97;;;28.60;83.00;;;;;;5034289;28;20065;-79
2022/08/07 07:41:59;;;;;;;3.22;2.83;;;29.00;82.30;;;;;;5034281;28;20072;-84
2022/08/07 07:44:27;;;;;;;2.60;2.30;;;29.20;80.80;;;;;;5034614;28;20049;-82
2022/08/07 07:46:55;;;;;;;2.75;2.38;;;29.60;80.20;;;;;;5033675;28;20041;-79
2022/08/07 07:49:23;;;;;;;2.97;2.55;;;29.60;78.80;;;;;;5033336;28;20444;-80
2022/08/07 07:51:51;;;;;;;4.70;2.42;;;29.70;77.10;;;;;;5034506;28;20068;-79
2022/08/07 07:54:18;;;;;;;2.38;1.70;;;29.90;76.90;;;;;;5034577;28;20057;-81
2022/08/07 07:56:47;;;;;;;2.58;1.90;;;30.10;75.80;;;;;;5034266;28;20041;-80
2022/08/07 07:59:14;;;;;;;4.28;2.15;;;29.60;74.70;;;;;;5034193;28;20091;-80
2022/08/07 08:01:45;;;;;;;3.50;2.60;;;29.70;75.00;;;;;;5034153;28;20504;-80
2022/08/07 08:04:12;;;;;;;2.22;1.95;;;29.90;71.70;;;;;;5034280;28;20454;-81
2022/08/07 08:06:44;;;;;;;3.13;2.08;;;30.00;73.80;;;;;;5034316;28;20451;-82
2022/08/07 08:09:11;;;;;;;4.77;2.60;;;30.40;72.00;;;;;;5034356;28;20038;-82
2022/08/07 08:11:37;;;;;;;3.42;2.38;;;30.50;71.90;;;;;;5034262;28;20406;-82
2022/08/07 08:14:03;;;;;;;3.28;2.13;;;30.60;72.60;;;;;;5033254;28;20088;-82
2022/08/07 08:16:38;;;;;;;2.35;2.10;;;30.30;71.90;;;;;;5034026;28;20443;-81
2022/08/07 08:19:07;;;;;;;2.58;2.28;;;30.30;69.10;;;;;;5034236;28;20045;-82
2022/08/07 08:27:08;;;;;;;2.85;2.40;;;30.80;70.70;;;;;;5033677;28;20053;-82
2022/08/07 08:30:01;;;;;;;2.40;2.17;;;30.70;70.20;;;;;;5032331;28;20048;-81
2022/08/07 08:32:30;;;;;;;3.17;2.28;;;30.20;67.50;;;;;;5033768;28;20053;-81
2022/08/07 08:34:57;;;;;;;3.95;2.65;;;29.70;69.80;;;;;;5033453;28;20077;-82
2022/08/07 08:37:26;;;;;;;3.88;2.35;;;29.00;70.10;;;;;;5033396;28;20060;-81
2022/08/07 08:39:54;;;;;;;2.67;2.47;;;29.00;70.70;;;;;;5033355;28;20046;-82
2022/08/07 08:42:37;;;;;;;3.95;2.28;;;29.20;69.10;;;;;;5033968;28;20103;-81
2022/08/07 08:45:18;;;;;;;2.75;2.40;;;29.30;67.20;;;;;;5033437;28;20116;-81
2022/08/07 08:47:59;;;;;;;2.55;2.35;;;29.50;67.60;;;;;;5033140;28;20099;-81
2022/08/07 08:50:51;;;;;;;2.38;1.95;;;29.60;68.70;;;;;;5033368;28;20124;-82
2022/08/07 08:53:36;;;;;;;2.60;1.85;;;29.60;65.90;;;;;;5033551;28;20117;-81
2022/08/07 08:56:08;;;;;;;8.43;2.72;;;30.20;66.00;;;;;;5033418;28;20056;-81
2022/08/07 08:58:57;;;;;;;2.13;1.92;;;30.40;66.90;;;;;;5032435;28;20470;-81
2022/08/07 09:01:40;;;;;;;2.35;1.75;;;30.30;66.90;;;;;;5032956;28;20133;-82
2022/08/07 09:04:22;;;;;;;2.65;1.80;;;30.20;64.50;;;;;;5033159;28;20049;-81
2022/08/07 09:06:50;;;;;;;3.05;1.70;;;30.10;64.80;;;;;;5033042;28;20041;-82
2022/08/07 09:09:47;;;;;;;2.92;2.20;;;29.90;64.70;;;;;;5031632;28;20128;-82
2022/08/07 09:12:36;;;;;;;2.47;2.22;;;29.40;64.30;;;;;;5033170;28;20046;-82
2022/08/07 09:15:27;;;;;;;3.80;2.03;;;29.60;64.10;;;;;;5031460;28;20052;-81
2022/08/07 09:17:55;;;;;;;4.05;1.67;;;29.50;63.50;;;;;;5031897;28;20052;-81
2022/08/07 09:20:35;;;;;;;3.55;1.60;;;29.30;65.20;;;;;;5032580;28;20055;-81
2022/08/07 09:23:10;;;;;;;2.38;1.60;;;29.60;65.40;;;;;;5032719;28;20049;-80
2022/08/07 09:25:46;;;;;;;6.05;1.85;;;29.70;65.90;;;;;;5032664;28;20053;-82
2022/08/07 09:28:23;;;;;;;3.60;2.03;;;29.80;63.60;;;;;;5032676;28;20069;-82
2022/08/07 09:31:31;;;;;;;3.97;1.92;;;29.70;61.80;;;;;;5032594;28;20124;-82
2022/08/07 09:34:24;;;;;;;7.65;2.35;;;29.90;63.30;;;;;;5034341;28;20046;-82
2022/08/07 09:37:02;;;;;;;3.10;1.70;;;29.80;61.30;;;;;;5033841;28;20069;-81
2022/08/07 09:39:43;;;;;;;2.10;2.00;;;29.90;60.70;;;;;;5033197;28;20045;-82
2022/08/07 09:42:32;;;;;;;2.30;1.92;;;30.00;61.60;;;;;;5032429;28;20058;-82
2022/08/07 09:45:22;;;;;;;3.00;1.92;;;30.00;63.00;;;;;;5032395;28;20056;-82
2022/08/07 09:48:03;;;;;;;2.33;1.63;;;29.80;62.40;;;;;;5031794;28;20041;-82
2022/08/07 09:50:50;;;;;;;1.90;1.80;;;29.90;61.90;;;;;;5032129;28;20074;-82
2022/08/07 09:53:21;;;;;;;1.98;1.80;;;30.00;61.50;;;;;;5032010;28;20053;-82
2022/08/07 09:56:22;;;;;;;3.65;1.77;;;30.00;62.70;;;;;;5031961;28;20057;-82
2022/08/07 09:59:05;;;;;;;1.90;1.80;;;29.80;60.50;;;;;;5031963;28;20040;-82
2022/08/07 10:01:59;;;;;;;1.85;1.65;;;29.70;60.70;;;;;;5031809;28;20053;-81
2022/08/07 10:04:37;;;;;;;1.88;1.50;;;29.80;60.30;;;;;;5031764;28;20045;-82
2022/08/07 10:07:33;;;;;;;2.28;1.80;;;29.90;62.20;;;;;;5032264;28;20083;-81
2022/08/07 10:10:09;;;;;;;1.48;1.35;;;29.80;58.00;;;;;;5031469;28;20045;-82
2022/08/07 10:13:05;;;;;;;1.70;1.50;;;29.70;59.90;;;;;;5031524;28;20087;-82
2022/08/07 10:15:53;;;;;;;2.08;1.88;;;30.00;58.80;;;;;;5031641;28;20477;-82
2022/08/07 10:18:51;;;;;;;1.77;1.63;;;30.20;59.70;;;;;;5031974;28;20121;-82
2022/08/07 10:21:16;;;;;;;3.25;1.65;;;30.00;59.70;;;;;;5031944;28;20041;-81
2022/08/07 10:24:17;;;;;;;3.53;1.55;;;29.90;61.20;;;;;;5031381;28;20052;-80
2022/08/07 10:27:04;;;;;;;4.30;1.70;;;30.00;59.20;;;;;;5031307;28;20053;-82
2022/08/07 10:30:05;;;;;;;2.10;1.58;;;30.30;61.00;;;;;;5031344;28;20049;-80
2022/08/07 10:32:55;;;;;;;1.58;1.48;;;30.10;59.20;;;;;;5029426;28;20111;-80
2022/08/07 10:35:35;;;;;;;3.33;1.55;;;30.10;59.50;;;;;;5031423;28;20103;-80
2022/08/07 10:38:22;;;;;;;1.90;1.70;;;29.90;58.70;;;;;;5031891;28;20048;-79
2022/08/07 10:40:52;;;;;;;1.50;1.40;;;29.90;58.50;;;;;;5031600;28;20042;-80
2022/08/07 10:43:31;;;;;;;1.42;1.27;;;30.10;59.60;;;;;;5031590;28;20136;-80
2022/08/07 10:46:00;;;;;;;1.70;1.55;;;29.70;58.60;;;;;;5031701;28;20108;-81
2022/08/07 10:48:53;;;;;;;2.22;1.52;;;29.60;58.50;;;;;;5031215;28;20049;-81
2022/08/07 10:51:33;;;;;;;1.70;1.38;;;29.70;58.20;;;;;;5031228;28;20163;-81
2022/08/07 10:54:14;;;;;;;3.20;1.50;;;29.80;57.90;;;;;;5029821;28;20061;-79
2022/08/07 10:57:04;;;;;;;2.03;1.63;;;29.70;58.10;;;;;;5031060;28;20049;-81
2022/08/07 10:59:45;;;;;;;1.55;1.45;;;29.60;58.60;;;;;;5030991;28;20041;-81
2022/08/07 11:02:22;;;;;;;1.80;1.40;;;29.40;59.00;;;;;;5031201;28;20045;-81
2022/08/07 11:05:10;;;;;;;1.65;1.55;;;29.20;58.50;;;;;;5030916;28;20044;-82
2022/08/07 11:08:11;;;;;;;1.60;1.50;;;28.60;58.80;;;;;;5031058;28;20041;-82
2022/08/07 11:10:51;;;;;;;2.88;1.83;;;28.20;58.70;;;;;;5031327;28;20045;-80
2022/08/07 11:13:35;;;;;;;1.45;1.35;;;27.90;59.90;;;;;;5031128;28;20045;-81
2022/08/07 11:16:35;;;;;;;1.83;1.73;;;26.90;60.00;;;;;;5031009;28;20045;-81
2022/08/07 11:19:20;;;;;;;2.58;1.83;;;26.80;60.30;;;;;;5026419;28;20053;-81
2022/08/07 11:22:06;;;;;;;2.42;1.60;;;26.60;61.20;;;;;;5000064;28;20083;-82
2022/08/07 11:24:52;;;;;;;3.90;1.60;;;26.70;60.90;;;;;;5034745;28;20052;-82
2022/08/07 11:27:28;;;;;;;2.03;1.60;;;26.70;59.70;;;;;;5033783;28;20100;-81
2022/08/07 11:29:58;;;;;;;3.08;1.42;;;26.70;59.00;;;;;;5034519;28;20079;-79
2022/08/07 11:32:47;;;;;;;1.67;1.50;;;26.80;59.20;;;;;;5033691;28;20357;-82
2022/08/07 11:35:29;;;;;;;4.93;1.63;;;26.70;59.10;;;;;;5034626;28;20057;-82
2022/08/07 11:38:15;;;;;;;1.67;1.58;;;26.70;58.30;;;;;;5034652;28;20052;-82
2022/08/07 11:41:00;;;;;;;1.73;1.48;;;26.70;58.30;;;;;;5034427;28;20045;-82
2022/08/07 11:43:29;;;;;;;2.88;1.83;;;26.70;59.70;;;;;;5034206;28;20045;-82
2022/08/07 11:46:08;;;;;;;4.40;1.83;;;26.70;59.30;;;;;;5034407;28;20049;-81
2022/08/07 11:48:55;;;;;;;1.63;1.40;;;26.90;59.70;;;;;;5034408;28;20119;-82
2022/08/07 11:51:31;;;;;;;2.88;1.65;;;26.90;58.80;;;;;;5034030;28;20049;-83
2022/08/07 11:54:30;;;;;;;1.73;1.48;;;26.90;58.80;;;;;;5034107;28;20089;-82
2022/08/07 11:57:30;;;;;;;1.63;1.20;;;26.60;58.60;;;;;;5034050;28;20045;-82
2022/08/07 12:00:12;;;;;;;2.38;2.03;;;26.00;58.60;;;;;;5034200;28;20088;-82
2022/08/07 12:03:29;;;;;;;7.72;1.42;;;25.90;60.00;;;;;;5032262;28;20065;-82
2022/08/07 12:06:38;;;;;;;2.10;1.50;;;26.00;58.90;;;;;;5033641;28;20115;-82
2022/08/07 12:09:24;;;;;;;1.65;1.48;;;26.20;60.10;;;;;;5033507;28;20478;-83
2022/08/07 12:12:07;;;;;;;2.60;1.40;;;26.50;59.60;;;;;;5033724;28;20058;-82
2022/08/07 12:14:48;;;;;;;1.60;1.45;;;26.50;59.60;;;;;;5033840;28;20085;-82
2022/08/07 12:17:19;;;;;;;2.25;1.30;;;26.50;60.50;;;;;;5033261;28;20485;-81
2022/08/07 12:19:58;;;;;;;3.45;1.92;;;26.60;60.30;;;;;;5033222;28;20049;-82
2022/08/07 12:22:40;;;;;;;1.75;1.65;;;26.70;60.90;;;;;;5033972;28;20045;-80
2022/08/07 12:28:22;;;;;;;1.42;1.33;;;26.90;60.80;;;;;;5033649;28;20041;-82
2022/08/07 12:30:54;;;;;;;3.85;1.55;;;26.80;60.40;;;;;;5033450;28;20462;-81
2022/08/07 12:33:24;;;;;;;2.67;2.00;;;26.70;59.50;;;;;;5033269;28;20488;-81
2022/08/07 12:35:52;;;;;;;1.83;1.73;;;26.60;59.80;;;;;;5033600;28;20276;-82
2022/08/07 12:38:19;;;;;;;1.90;1.40;;;26.70;60.40;;;;;;5033289;28;20041;-80
2022/08/07 12:40:48;;;;;;;1.50;1.40;;;26.30;60.20;;;;;;5033529;28;20069;-79
2022/08/07 12:43:16;;;;;;;2.53;1.60;;;26.00;60.20;;;;;;5032938;28;20033;-80
2022/08/07 12:45:55;;;;;;;1.75;1.65;;;25.80;60.90;;;;;;5033498;28;20076;-81
2022/08/07 12:48:58;;;;;;;1.83;1.50;;;25.60;62.40;;;;;;5031462;28;20483;-81
2022/08/07 12:51:27;;;;;;;4.43;1.77;;;25.70;61.80;;;;;;5032910;28;20120;-81
2022/08/07 12:54:14;;;;;;;1.83;1.23;;;25.80;61.30;;;;;;5032680;28;20046;-80
2022/08/07 12:56:43;;;;;;;1.88;1.27;;;25.90;61.40;;;;;;5031609;28;20099;-80
2022/08/07 12:59:16;;;;;;;1.58;1.25;;;26.10;60.40;;;;;;5032841;28;20048;-80
2022/08/07 13:02:03;;;;;;;2.00;1.23;;;26.30;59.70;;;;;;5032983;28;20045;-80
2022/08/07 13:04:47;;;;;;;2.20;1.60;;;26.20;59.80;;;;;;5032893;28;20130;-80
2022/08/07 13:07:43;;;;;;;1.75;1.50;;;26.30;62.10;;;;;;5032939;28;20052;-80
2022/08/07 13:10:46;;;;;;;1.90;1.80;;;26.50;62.30;;;;;;5032751;28;20041;-80
2022/08/07 13:13:15;;;;;;;2.00;1.40;;;26.80;62.60;;;;;;5032601;28;20056;-80
2022/08/07 13:16:10;;;;;;;1.60;1.50;;;26.80;60.90;;;;;;5032442;28;20121;-79
2022/08/07 13:18:51;;;;;;;2.47;1.60;;;26.80;60.10;;;;;;5031583;28;20121;-79
2022/08/07 13:21:31;;;;;;;2.40;1.55;;;25.90;61.60;;;;;;5031614;28;20545;-80
2022/08/07 13:24:08;;;;;;;1.42;1.33;;;25.80;63.40;;;;;;5032378;28;20053;-81
2022/08/07 13:26:53;;;;;;;4.13;1.38;;;25.80;63.00;;;;;;5031072;28;20128;-81
2022/08/07 13:29:59;;;;;;;2.97;1.48;;;25.70;63.30;;;;;;5032079;28;20041;-81